Latest Weather Observations for Lord Howe Island

IDN60801

Issued at 2:22 pm EST Saturday 25 May 2024 (issued every 10 minutes, with the page automatically refreshed every 10 minutes)

About weather observations | Map of weather stations | Latest weather observations for NSW | Other Formats
Station Details ID: 200839 Name: LORD HOWE ISLAND AERO Lat: -31.54 Lon: 159.08 Height: 5.0 m
Data from the previous 72 hours. | See also: Recent months at Lord Howe Island

Observations are collected in the New South Wales time zone (Eastern Standard Time) which includes daylight savings in the summer period. Therefore 'Rain since 9am' totals and other values are based on the New South Wales time zone, which may differ from local time.

Date/Time
EST
Temp
°C
App
Temp
°C
Dew
Point
°C
Rel
Hum
%
Delta-T
°C
Wind Press
QNH
hPa
Press
MSL
hPa
Rain since
9am
mm
Dir  Spd
km/h
Gust
km/h
Spd
kts
Gust
kts
25/02:00pm 20.1 18.4 13.6 66 3.7 ESE 15 30 8 16 1023.3 1023.2 0.2
25/01:30pm 20.4 18.7 13.6 65 3.9 ESE 15 32 8 17 1023.4 1023.3 0.2
25/01:00pm 19.9 18.7 14.0 69 3.4 SE 13 22 7 12 1023.6 1023.5 0.2
25/12:30pm 20.7 19.2 14.1 66 3.8 SE 15 26 8 14 1023.6 1023.5 0.2
25/12:00pm 19.8 18.4 13.3 66 3.7 SE 13 26 7 14 1024.1 1024.0 0.2
25/11:30am 20.2 19.4 14.1 68 3.5 SE 11 22 6 12 1024.3 1024.2 0.2
25/11:00am 21.1 20.1 14.5 66 3.8 SE 13 32 7 17 1024.5 1024.4 0.0
25/10:30am 21.3 20.7 13.5 61 4.5 E 9 19 5 10 1024.8 1024.7 0.0
25/10:00am 20.1 19.4 12.1 60 4.4 SW 7 15 4 8 1025.1 1025.0 0.0
25/09:30am 19.8 18.8 13.5 67 3.6 ESE 11 19 6 10 1025.0 1024.9 0.0
25/09:00am 20.5 20.2 12.7 61 4.4 WSW 6 13 3 7 1025.0 1024.9 0.0
25/08:30am 19.9 18.3 11.7 59 4.5 SW 11 19 6 10 1024.9 1024.8 1.2
25/08:00am 19.2 18.2 12.2 64 3.9 SSW 9 22 5 12 1024.7 1024.6 1.2
25/07:30am 19.6 18.2 12.1 62 4.2 SE 11 24 6 13 1024.4 1024.3 1.2
25/07:00am 18.9 17.6 12.4 66 3.6 - 11 24 6 13 1024.2 1024.1 1.2
25/06:30am 18.1 16.9 12.8 71 3.0 - 11 19 6 10 1023.9 1023.8 1.2
25/06:00am 17.4 17.1 12.7 74 2.6 - 6 9 3 5 1023.8 1023.7 1.2
25/05:30am 18.2 17.0 12.9 71 3.0 - 11 17 6 9 1023.6 1023.5 1.2
25/05:00am 16.0 16.1 11.6 75 2.4 - 2 9 1 5 1023.4 1023.3 1.2
25/04:30am 17.5 16.8 12.0 70 3.0 - 7 11 4 6 1023.2 1023.1 1.2
25/04:00am 18.4 17.2 12.8 70 3.1 - 11 20 6 11 1023.0 1022.9 1.2
25/03:30am 18.3 16.7 12.7 70 3.1 - 13 20 7 11 1023.0 1022.9 1.2
25/03:00am 18.4 16.6 13.3 72 2.9 - 15 22 8 12 1023.0 1022.9 1.2
25/02:30am 18.9 17.2 13.7 72 3.0 - 15 24 8 13 1022.9 1022.8 1.2
25/02:00am 18.6 16.7 13.0 70 3.1 - 15 22 8 12 1023.0 1022.9 1.2
25/01:30am 18.2 17.4 13.9 76 2.5 - 11 17 6 9 1023.2 1023.1 1.2
25/01:00am 17.4 16.8 13.5 78 2.2 SSW 9 15 5 8 1023.4 1023.3 1.2
25/12:30am 17.1 17.3 14.6 85 1.4 SSW 7 17 4 9 1023.4 1023.3 1.2
25/12:00am 15.8 16.0 14.3 91 0.8 SSE 6 11 3 6 1023.4 1023.3 1.2
 
Date/Time
EST
Temp
°C
App
Temp
°C
Dew
Point
°C
Rel
Hum
%
Delta-T
°C
Wind Press
QNH
hPa
Press
MSL
hPa
Rain since
9am
mm
Dir  Spd
km/h
Gust
km/h
Spd
kts
Gust
kts
24/11:30pm 15.5 16.2 14.4 93 0.6 SSW 4 7 2 4 1023.4 1023.3 1.2
24/11:00pm 16.8 16.5 15.5 92 0.8 SSW 11 13 6 7 1023.7 1023.6 1.2
24/10:30pm 16.8 17.5 15.5 92 0.8 SW 6 9 3 5 1024.0 1023.9 0.8
24/10:00pm 16.2 16.3 14.0 87 1.2 S 6 9 3 5 1024.1 1024.0 0.6
24/09:30pm 17.5 17.3 14.8 84 1.6 SSW 9 13 5 7 1024.2 1024.1 0.6
24/09:00pm 16.5 17.2 13.4 82 1.7 S 2 7 1 4 1024.2 1024.1 0.6
24/08:30pm 17.1 14.6 13.6 80 2.0 ESE 19 28 10 15 1023.9 1023.8 0.6
24/08:00pm 17.9 18.1 13.2 74 2.6 SE 4 7 2 4 1023.8 1023.7 0.0
24/07:30pm 18.8 18.2 13.6 72 3.0 SSW 9 15 5 8 1023.9 1023.8 0.0
24/07:00pm 19.1 18.6 13.9 72 3.0 SW 9 17 5 9 1023.8 1023.7 0.0
24/06:30pm 18.9 18.1 14.0 73 2.8 SW 11 15 6 8 1023.6 1023.5 0.0
24/06:00pm 18.8 17.4 13.4 71 3.1 SW 13 20 7 11 1023.7 1023.6 0.0
24/05:30pm 18.9 18.0 13.7 72 3.0 SW 11 19 6 10 1023.5 1023.4 0.0
24/05:00pm 18.8 17.4 13.4 71 3.1 WSW 13 19 7 10 1023.2 1023.1 0.0
24/04:30pm 18.7 17.1 12.9 69 3.3 SW 13 17 7 9 1023.0 1022.9 0.0
24/04:00pm 19.1 18.0 13.1 68 3.4 SW 11 19 6 10 1022.9 1022.8 0.0
24/03:30pm 19.4 18.2 12.9 66 3.7 SW 11 19 6 10 1022.9 1022.8 0.0
24/03:00pm 19.7 18.5 12.9 65 3.8 SW 11 15 6 8 1022.9 1022.8 0.0
24/02:30pm 19.9 18.6 12.4 62 4.2 SW 11 17 6 9 1022.9 1022.8 0.0
24/02:00pm 20.2 18.5 12.4 61 4.4 SW 13 17 7 9 1023.0 1022.9 0.0
24/01:30pm 20.4 19.6 12.9 62 4.3 SW 9 15 5 8 1022.9 1022.8 0.0
24/01:00pm 20.6 19.4 12.8 61 4.4 SW 11 15 6 8 1023.2 1023.1 0.0
24/12:30pm 20.0 18.4 11.5 58 4.7 SW 11 19 6 10 1023.3 1023.2 0.0
24/12:00pm 20.4 19.3 11.9 58 4.7 SW 9 17 5 9 1023.4 1023.3 0.0
24/11:30am 20.5 18.8 11.2 55 5.1 SW 11 20 6 11 1023.7 1023.6 0.0
24/11:00am 20.3 18.9 11.0 55 5.1 SE 9 15 5 8 1024.2 1024.1 0.0
24/10:30am 20.2 17.0 11.1 56 5.0 E 19 28 10 15 1024.3 1024.2 0.0
24/10:00am 20.4 18.7 11.3 56 5.0 ESE 11 17 6 9 1024.5 1024.4 0.0
24/09:30am 19.9 19.1 11.7 59 4.5 SSW 7 20 4 11 1024.6 1024.5 0.0
24/09:00am 19.1 17.8 10.1 56 4.8 SSW 7 17 4 9 1024.5 1024.4 0.0
24/08:30am 19.5 18.4 10.8 57 4.7 SSW 7 17 4 9 1024.5 1024.4 0.0
24/08:00am 19.0 17.6 10.8 59 4.4 SSW 9 19 5 10 1024.4 1024.3 0.0
24/07:30am 18.0 17.1 11.3 65 3.6 S 7 13 4 7 1024.1 1024.0 0.0
24/07:00am 16.8 16.0 11.1 69 3.1 S 6 11 3 6 1024.1 1024.0 0.0
24/06:30am 15.6 15.0 10.4 71 2.7 SE 4 7 2 4 1023.8 1023.7 0.0
24/06:00am 16.2 15.3 11.4 73 2.6 S 7 11 4 6 1023.4 1023.3 0.0
24/05:30am 13.7 13.6 9.4 75 2.2 CALM 0 0 0 0 1023.2 1023.1 0.0
24/05:00am 14.5 14.1 9.7 73 2.5 ESE 2 6 1 3 1023.0 1022.9 0.0
24/04:30am 15.5 14.5 9.0 65 3.3 SSW 4 7 2 4 1022.7 1022.6 0.0
24/04:00am 16.7 15.5 9.4 62 3.8 SSW 6 15 3 8 1022.7 1022.6 0.0
24/03:30am 17.5 15.1 9.9 61 4.0 SSW 13 24 7 13 1022.8 1022.7 0.0
24/03:00am 17.6 15.1 9.8 60 4.1 S 13 28 7 15 1022.8 1022.7 0.0
24/02:30am 17.5 15.9 10.1 62 3.9 SSW 9 20 5 11 1022.8 1022.7 0.0
24/02:00am 17.1 15.6 9.0 59 4.2 SE 7 13 4 7 1022.8 1022.7 0.0
24/01:30am 17.3 14.5 8.7 57 4.4 SSW 13 26 7 14 1023.0 1022.9 0.0
24/01:00am 17.9 14.6 9.5 58 4.4 SSW 17 32 9 17 1023.2 1023.1 0.0
24/12:30am 17.8 14.9 9.7 59 4.3 SSW 15 32 8 17 1023.3 1023.2 0.0
24/12:00am 18.1 15.3 10.0 59 4.3 SSW 15 26 8 14 1023.3 1023.2 0.0
 
Date/Time
EST
Temp
°C
App
Temp
°C
Dew
Point
°C
Rel
Hum
%
Delta-T
°C
Wind Press
QNH
hPa
Press
MSL
hPa
Rain since
9am
mm
Dir  Spd
km/h
Gust
km/h
Spd
kts
Gust
kts
23/11:30pm 17.9 16.3 10.3 61 4.0 SSE 9 20 5 11 1023.0 1022.9 0.0
23/11:00pm 17.8 15.5 8.9 56 4.6 SW 11 19 6 10 1022.9 1022.8 0.0
23/10:30pm 17.8 15.3 9.7 59 4.3 SSW 13 26 7 14 1023.0 1022.9 0.0
23/10:00pm 18.0 15.0 9.4 57 4.5 SSW 15 26 8 14 1023.1 1023.0 0.0
23/09:30pm 18.0 15.0 9.4 57 4.5 SSW 15 28 8 15 1023.1 1023.0 0.0
23/09:00pm 18.0 15.5 9.6 58 4.4 SSW 13 26 7 14 1023.1 1023.0 0.0
23/08:30pm 18.0 15.3 9.1 56 4.6 SW 13 26 7 14 1023.1 1023.0 0.0
23/08:00pm 18.2 14.8 9.3 56 4.6 SW 17 33 9 18 1022.9 1022.8 0.0
23/07:30pm 18.1 14.4 9.5 57 4.5 SSW 19 32 10 17 1022.7 1022.6 0.0
23/07:00pm 18.1 14.8 9.7 58 4.4 SSW 17 30 9 16 1022.7 1022.6 0.0
23/06:30pm 17.7 15.8 10.6 63 3.8 S 11 22 6 12 1022.3 1022.2 0.0
23/06:00pm 17.8 16.6 10.2 61 4.0 SSW 7 19 4 10 1021.9 1021.8 0.0
23/05:30pm 17.7 15.7 10.3 62 3.9 S 11 20 6 11 1021.6 1021.5 0.0
23/05:00pm 17.8 14.3 10.2 61 4.0 SSW 19 33 10 18 1021.5 1021.4 0.0
23/04:30pm 17.8 14.2 9.7 59 4.3 SSW 19 30 10 16 1021.3 1021.2 0.0
23/04:00pm 18.2 14.7 10.1 59 4.3 SSW 19 30 10 16 1021.1 1021.0 0.0
23/03:30pm 18.7 17.3 13.3 71 3.1 SW 13 20 7 11 1020.9 1020.8 0.0
23/03:00pm 18.3 17.0 13.8 75 2.6 SW 13 20 7 11 1020.8 1020.7 0.0
23/02:30pm 18.0 15.5 13.5 75 2.5 SW 19 32 10 17 1020.6 1020.5 0.0
23/02:00pm 18.6 16.4 12.1 66 3.6 SW 15 28 8 15 1020.7 1020.6 0.0
23/01:30pm 18.4 16.0 12.6 69 3.2 SSW 17 26 9 14 1020.6 1020.5 0.0
23/01:00pm 19.5 18.0 13.0 66 3.7 SW 13 22 7 12 1020.7 1020.6 0.0
23/12:30pm 19.4 17.5 13.1 67 3.6 SW 15 20 8 11 1020.7 1020.6 0.0
23/12:00pm 19.5 17.8 12.3 63 4.0 SW 13 20 7 11 1020.7 1020.6 0.0
23/11:30am 19.6 18.3 12.4 63 4.0 SW 11 17 6 9 1020.9 1020.8 0.0
23/11:00am 19.5 17.2 11.8 61 4.2 SW 15 24 8 13 1021.2 1021.1 0.0
23/10:30am 19.7 18.1 12.7 64 3.9 SSW 13 22 7 12 1021.5 1021.4 0.0
23/10:00am 18.7 17.6 11.8 64 3.8 SE 9 11 5 6 1021.6 1021.5 0.0
23/09:30am 19.2 17.6 12.9 67 3.5 SSW 13 28 7 15 1021.7 1021.6 0.0
23/09:00am 17.5 16.8 13.2 76 2.4 SE 9 15 5 8 1021.8 1021.7 0.0
23/08:30am 18.4 16.0 12.6 69 3.2 SSW 17 24 9 13 1021.7 1021.6 0.0
23/08:00am 18.5 17.3 11.6 64 3.8 SSE 9 17 5 9 1021.3 1021.2 0.0
23/07:30am 17.5 16.3 11.5 68 3.3 S 9 15 5 8 1021.1 1021.0 0.0
23/07:00am 16.3 16.4 11.5 73 2.6 SE 2 7 1 4 1020.8 1020.7 0.0
23/06:30am 16.2 15.4 10.9 71 2.8 SE 6 11 3 6 1020.5 1020.4 0.0
23/06:00am 16.2 15.5 11.4 73 2.6 SE 6 11 3 6 1020.2 1020.1 0.0
23/05:30am 16.4 15.5 11.3 72 2.7 SE 7 9 4 5 1019.9 1019.8 0.0
23/05:00am 16.0 15.1 11.4 74 2.5 SW 7 17 4 9 1019.5 1019.5 0.0
23/04:30am 15.8 14.9 11.2 74 2.5 S 7 11 4 6 1019.3 1019.3 0.0
23/04:00am 14.9 14.0 10.5 75 2.3 SSE 6 7 3 4 1019.2 1019.2 0.0
23/03:30am 15.6 14.7 10.8 73 2.5 SE 6 9 3 5 1019.1 1019.1 0.0
23/03:00am 15.6 14.9 11.4 76 2.3 S 6 9 3 5 1019.2 1019.2 0.0
23/02:30am 14.1 13.5 10.5 79 1.9 SSE 4 7 2 4 1019.3 1019.3 0.0
23/02:00am 14.4 14.3 10.8 79 1.9 S 2 7 1 4 1019.4 1019.4 0.0
23/01:30am 15.0 15.0 11.0 77 2.1 W 2 7 1 4 1019.5 1019.5 0.0
23/01:00am 14.8 14.9 11.6 81 1.7 S 2 7 1 4 1019.7 1019.7 0.0
23/12:30am 14.9 14.4 10.9 77 2.1 SE 4 7 2 4 1019.7 1019.7 0.0
23/12:00am 16.3 15.4 11.5 73 2.6 SE 7 11 4 6 1019.7 1019.7 0.0
 
Date/Time
EST
Temp
°C
App
Temp
°C
Dew
Point
°C
Rel
Hum
%
Delta-T
°C
Wind Press
QNH
hPa
Press
MSL
hPa
Rain since
9am
mm
Dir  Spd
km/h
Gust
km/h
Spd
kts
Gust
kts
22/11:30pm 16.1 16.0 12.1 77 2.2 SSE 4 7 2 4 1019.7 1019.7 0.0
22/11:00pm 16.3 15.7 11.7 74 2.5 SW 6 9 3 5 1020.1 1020.0 0.0
22/10:30pm 16.5 15.3 11.6 73 2.7 SSW 9 13 5 7 1020.2 1020.1 0.0
22/10:00pm 17.5 16.4 13.0 75 2.5 SW 11 17 6 9 1020.4 1020.3 0.0
22/09:30pm 17.7 16.3 13.4 76 2.4 SW 13 20 7 11 1020.5 1020.4 0.0
22/09:00pm 17.0 15.7 11.3 69 3.1 SSW 9 15 5 8 1020.6 1020.5 0.0
22/08:30pm 16.4 15.2 11.6 73 2.6 SSW 9 15 5 8 1020.5 1020.4 0.0
22/08:00pm 16.7 15.4 11.2 70 3.0 S 9 17 5 9 1020.3 1020.2 0.0
22/07:30pm 16.3 15.3 11.0 71 2.8 S 7 11 4 6 1020.3 1020.2 0.0
22/07:00pm 16.5 15.6 10.8 69 3.0 SSW 6 15 3 8 1020.2 1020.1 0.0
22/06:30pm 16.8 15.9 11.3 70 3.0 SSW 7 17 4 9 1020.1 1020.0 0.0
22/06:00pm 16.9 15.2 11.2 69 3.1 SSW 11 17 6 9 1019.9 1019.8 0.0
22/05:30pm 16.7 15.8 11.2 70 3.0 SSW 7 13 4 7 1019.6 1019.6 0.0
22/05:00pm 17.3 14.9 11.3 68 3.2 SSW 15 24 8 13 1019.4 1019.4 0.0
22/04:30pm 17.5 15.4 11.3 67 3.4 SSW 13 20 7 11 1019.2 1019.2 0.0
22/04:00pm 18.3 16.7 11.6 65 3.7 SSW 11 20 6 11 1019.1 1019.1 0.0
22/03:30pm 18.8 17.2 11.4 62 4.0 SW 11 17 6 9 1018.8 1018.8 0.0
22/03:00pm 18.9 17.0 11.9 64 3.9 SW 13 20 7 11 1018.7 1018.7 0.0
22/02:30pm 19.2 17.4 12.0 63 4.0 SW 13 20 7 11 1018.6 1018.6 0.0
22/02:00pm 19.1 17.4 12.6 66 3.6 SW 13 20 7 11 1018.8 1018.8 0.0

Other formats

Comma delimited format used in spreadsheet applications
http://www.bom.gov.au/fwo/IDN60801/IDN60801.94995.axf

JavaScript Object Notation format (JSON) in row-major order
http://www.bom.gov.au/fwo/IDN60801/IDN60801.94995.json

Data quality

Most of these data are generated automatically and are frequently updated. Quality checks on data are not normally performed. It is possible for incorrect values to appear. Refer to information at About Latest Weather Observations and please check the disclaimer before using these data.